Time;durP1;ratioP1;P1;durP2;ratioP2;P2;SDS_P1;SDS_P2;PMS_P1;PMS_P2;Temp;Humidity;BMP_temperature;BMP_pressure;BME280_temperature;BME280_humidity;BME280_pressure;Samples;Min_cycle;Max_cycle;Signal;HPM_P1;HPM_P2
2020/12/09 00:00:56;;;;;;;8.60;7.90;;;13.20;99.90;;;;;;4993918;28;20499;-30
2020/12/09 00:03:26;;;;;;;7.40;6.70;;;13.20;99.90;;;;;;5008051;28;20450;-31
2020/12/09 00:05:56;;;;;;;8.30;7.60;;;13.30;99.90;;;;;;4996865;28;20461;-30
2020/12/09 00:08:26;;;;;;;8.47;7.77;;;13.30;99.90;;;;;;4993841;28;20485;-31
2020/12/09 00:10:56;;;;;;;8.23;7.40;;;13.20;99.90;;;;;;5004987;28;21020;-30
2020/12/09 00:13:26;;;;;;;8.47;7.67;;;13.10;99.90;;;;;;4999042;28;20822;-30
2020/12/09 00:15:57;;;;;;;7.17;6.60;;;13.10;99.90;;;;;;4978640;28;20455;-30
2020/12/09 00:18:27;;;;;;;8.63;7.33;;;13.20;99.90;;;;;;5011101;28;20507;-30
2020/12/09 00:20:58;;;;;;;8.07;7.20;;;13.10;99.90;;;;;;4995830;28;20459;-31
2020/12/09 00:23:28;;;;;;;7.70;7.00;;;13.00;99.90;;;;;;4993611;28;20459;-31
2020/12/09 00:25:58;;;;;;;8.27;7.43;;;13.00;99.90;;;;;;5008272;28;20516;-31
2020/12/09 00:28:28;;;;;;;8.93;8.13;;;12.90;99.90;;;;;;4995776;28;20486;-30
2020/12/09 00:30:59;;;;;;;7.30;6.70;;;12.80;99.90;;;;;;5002542;28;20519;-30
2020/12/09 00:33:29;;;;;;;8.23;7.53;;;12.80;99.90;;;;;;5005478;28;20478;-30
2020/12/09 00:35:59;;;;;;;8.93;8.03;;;12.80;99.90;;;;;;4998003;28;21171;-31
2020/12/09 00:38:29;;;;;;;8.00;7.40;;;12.80;99.90;;;;;;5004338;28;20454;-30
2020/12/09 00:40:59;;;;;;;7.50;6.90;;;12.80;99.90;;;;;;4999574;28;20481;-30
2020/12/09 00:43:29;;;;;;;8.27;7.57;;;12.70;99.90;;;;;;4991141;28;20472;-30
2020/12/09 00:46:00;;;;;;;8.47;7.77;;;12.60;99.90;;;;;;4991960;28;20528;-30
2020/12/09 00:48:31;;;;;;;8.57;7.87;;;12.50;99.90;;;;;;5004040;28;20488;-30
2020/12/09 00:51:02;;;;;;;9.83;8.17;;;12.50;99.90;;;;;;5009971;28;20520;-30
2020/12/09 00:53:32;;;;;;;8.10;7.40;;;12.50;99.90;;;;;;4991815;28;20466;-29
2020/12/09 00:56:02;;;;;;;7.65;7.05;;;12.50;99.90;;;;;;4999488;28;20460;-29
2020/12/09 00:58:32;;;;;;;9.23;8.43;;;12.50;99.90;;;;;;4999379;28;20777;-30
2020/12/09 01:01:04;;;;;;;7.60;6.97;;;12.50;99.90;;;;;;5008198;28;20197;-30
2020/12/09 01:03:34;;;;;;;8.17;7.47;;;12.50;99.90;;;;;;4979341;28;20504;-30
2020/12/09 01:06:06;;;;;;;8.30;7.50;;;12.40;99.90;;;;;;5003061;28;20445;-30
2020/12/09 01:08:37;;;;;;;8.93;7.90;;;12.50;99.90;;;;;;5000394;28;20484;-30
2020/12/09 01:11:07;;;;;;;8.38;7.68;;;12.50;99.90;;;;;;5007776;28;20489;-31
2020/12/09 01:13:43;;;;;;;9.17;8.37;;;12.30;99.90;;;;;;4978355;28;20295;-29
2020/12/09 01:16:17;;;;;;;8.67;8.07;;;12.30;99.90;;;;;;5002761;28;20976;-29
2020/12/09 01:18:48;;;;;;;9.13;8.40;;;12.30;99.90;;;;;;4991100;28;20453;-29
2020/12/09 01:21:28;;;;;;;9.23;8.35;;;12.30;99.90;;;;;;5007785;28;20197;-29
2020/12/09 01:23:58;;;;;;;10.35;9.40;;;12.30;99.90;;;;;;4991260;28;20206;-29
2020/12/09 01:26:28;;;;;;;12.00;10.88;;;12.30;99.90;;;;;;5005975;28;20585;-29
2020/12/09 01:28:58;;;;;;;11.15;10.23;;;12.20;99.90;;;;;;5009881;28;20277;-36
2020/12/09 01:31:29;;;;;;;12.97;11.53;;;12.20;99.90;;;;;;5009429;28;20224;-29
2020/12/09 01:33:59;;;;;;;12.37;11.27;;;12.20;99.90;;;;;;4990586;28;20968;-29
2020/12/09 01:36:30;;;;;;;11.57;10.50;;;12.20;99.90;;;;;;4999585;28;20472;-30
2020/12/09 01:39:00;;;;;;;11.07;10.07;;;12.10;99.90;;;;;;5008637;28;20464;-30
2020/12/09 01:41:30;;;;;;;12.20;11.00;;;12.10;99.90;;;;;;5010235;28;20452;-30
2020/12/09 01:44:00;;;;;;;10.90;10.00;;;12.10;99.90;;;;;;4977876;28;20646;-29
2020/12/09 01:46:32;;;;;;;11.47;10.53;;;12.10;99.90;;;;;;4998571;28;21116;-30
2020/12/09 01:49:03;;;;;;;10.85;9.85;;;12.00;99.90;;;;;;4992069;28;20547;-30
2020/12/09 01:51:34;;;;;;;12.50;11.50;;;12.00;99.90;;;;;;4992864;28;20290;-30
2020/12/09 01:54:04;;;;;;;12.25;11.02;;;11.80;99.90;;;;;;4975206;28;20449;-29
2020/12/09 01:56:34;;;;;;;12.88;11.57;;;11.80;99.90;;;;;;4997633;28;20201;-30
2020/12/09 01:59:05;;;;;;;12.53;11.33;;;11.70;99.90;;;;;;4991738;28;20202;-31
2020/12/09 02:01:36;;;;;;;13.33;12.13;;;11.80;99.90;;;;;;4992358;28;20996;-30
2020/12/09 02:04:06;;;;;;;17.00;15.17;;;11.70;99.90;;;;;;5007244;28;21283;-30
2020/12/09 02:06:36;;;;;;;16.10;14.67;;;11.80;99.90;;;;;;5005380;28;20453;-29
2020/12/09 02:09:06;;;;;;;14.03;12.53;;;11.80;99.90;;;;;;4992634;28;20496;-29
2020/12/09 02:11:36;;;;;;;16.80;15.10;;;11.70;99.90;;;;;;4989686;28;21026;-29
2020/12/09 02:14:06;;;;;;;14.90;13.57;;;11.70;99.90;;;;;;4999954;28;20209;-29
2020/12/09 02:16:37;;;;;;;13.32;11.85;;;11.70;99.90;;;;;;4992168;28;20200;-30
2020/12/09 02:19:07;;;;;;;13.43;12.20;;;11.70;99.90;;;;;;4999276;28;21013;-30
2020/12/09 02:21:38;;;;;;;12.82;11.63;;;11.60;99.90;;;;;;5001293;28;20731;-30
2020/12/09 02:24:08;;;;;;;16.17;12.45;;;11.70;99.90;;;;;;4994670;28;20195;-30
2020/12/09 02:26:43;;;;;;;11.73;10.65;;;11.60;99.90;;;;;;5003161;28;20231;-30
2020/12/09 02:29:13;;;;;;;13.15;12.00;;;11.60;99.90;;;;;;4990133;28;20217;-30
2020/12/09 02:31:44;;;;;;;13.63;12.32;;;11.60;99.90;;;;;;5004086;28;20300;-30
2020/12/09 02:34:14;;;;;;;13.93;12.52;;;11.70;99.90;;;;;;5009012;28;20198;-30
2020/12/09 02:36:47;;;;;;;12.90;11.85;;;11.60;99.90;;;;;;4997941;28;20285;-30
2020/12/09 02:39:17;;;;;;;13.03;11.83;;;11.70;99.90;;;;;;4999073;28;20223;-30
2020/12/09 02:41:47;;;;;;;15.77;14.30;;;11.60;99.90;;;;;;4997151;28;20454;-30
2020/12/09 02:44:18;;;;;;;16.75;15.15;;;11.50;99.90;;;;;;4990273;28;20209;-30
2020/12/09 02:46:48;;;;;;;13.83;12.53;;;11.60;99.90;;;;;;4989958;28;20202;-30
2020/12/09 02:49:18;;;;;;;14.90;11.50;;;11.70;99.90;;;;;;4990283;28;20484;-30
2020/12/09 02:51:49;;;;;;;12.43;11.30;;;11.70;99.90;;;;;;4995867;28;20459;-30
2020/12/09 02:54:19;;;;;;;13.23;12.02;;;11.70;99.90;;;;;;4991094;28;20441;-29
2020/12/09 02:56:50;;;;;;;12.07;11.07;;;11.60;99.90;;;;;;4988879;28;20194;-30
2020/12/09 02:59:20;;;;;;;13.50;12.20;;;11.70;99.90;;;;;;4989815;28;20264;-30
2020/12/09 03:01:50;;;;;;;14.13;12.82;;;11.70;99.90;;;;;;4989784;28;20207;-30
2020/12/09 03:04:20;;;;;;;13.43;12.15;;;11.60;99.90;;;;;;5005844;28;20228;-30
2020/12/09 03:06:51;;;;;;;14.07;12.70;;;11.60;99.90;;;;;;4992853;28;20214;-30
2020/12/09 03:09:21;;;;;;;13.57;12.38;;;11.80;99.90;;;;;;4981676;28;20539;-30
2020/12/09 03:11:51;;;;;;;14.65;12.20;;;11.70;99.90;;;;;;4989359;28;20606;-30
2020/12/09 03:14:21;;;;;;;13.30;11.77;;;11.70;99.90;;;;;;4989971;28;20661;-30
2020/12/09 03:16:51;;;;;;;13.95;12.65;;;11.70;99.90;;;;;;5007636;28;20616;-30
2020/12/09 03:19:21;;;;;;;13.73;12.43;;;11.80;99.90;;;;;;5002963;28;20203;-30
2020/12/09 03:21:52;;;;;;;12.80;11.60;;;11.80;99.90;;;;;;4989422;28;20237;-30
2020/12/09 03:24:22;;;;;;;12.55;11.25;;;11.90;99.90;;;;;;4989283;28;20420;-30
2020/12/09 03:26:52;;;;;;;11.18;10.07;;;11.90;99.90;;;;;;5006198;28;20726;-30
2020/12/09 03:29:22;;;;;;;11.80;9.97;;;11.80;99.90;;;;;;5003611;28;20364;-30
2020/12/09 03:31:52;;;;;;;11.93;10.73;;;11.90;99.90;;;;;;4989571;28;20481;-29
2020/12/09 03:34:22;;;;;;;10.77;9.73;;;11.90;99.90;;;;;;5002189;28;20209;-30
2020/12/09 03:36:54;;;;;;;11.70;10.60;;;11.90;99.90;;;;;;4992256;28;21050;-29
2020/12/09 03:39:24;;;;;;;11.70;10.57;;;11.80;99.90;;;;;;4987112;28;20239;-30
2020/12/09 03:41:54;;;;;;;11.73;10.65;;;11.80;99.90;;;;;;4999809;28;20444;-31
2020/12/09 03:44:24;;;;;;;11.20;10.15;;;11.80;99.90;;;;;;5006455;28;20516;-30
2020/12/09 03:46:56;;;;;;;12.30;11.13;;;11.80;99.90;;;;;;4998846;28;20223;-30
2020/12/09 03:49:27;;;;;;;12.00;10.63;;;11.80;99.90;;;;;;4996295;28;20996;-30
2020/12/09 03:51:58;;;;;;;12.57;11.37;;;11.80;99.90;;;;;;4992658;28;20450;-30
2020/12/09 03:54:28;;;;;;;11.70;10.70;;;11.80;99.90;;;;;;4982935;28;20488;-29
2020/12/09 03:56:58;;;;;;;11.25;10.15;;;11.80;99.90;;;;;;5004703;28;20456;-29
2020/12/09 03:59:28;;;;;;;13.32;12.02;;;11.80;99.90;;;;;;5010243;28;20302;-30
2020/12/09 04:01:58;;;;;;;14.50;13.07;;;11.80;99.90;;;;;;5010938;28;20257;-29
2020/12/09 04:04:28;;;;;;;14.07;12.57;;;11.80;99.90;;;;;;4998532;28;20457;-29
2020/12/09 04:06:59;;;;;;;14.05;12.40;;;11.80;99.90;;;;;;5008343;28;20499;-30
2020/12/09 04:09:30;;;;;;;14.80;13.30;;;11.60;99.90;;;;;;5005564;28;20268;-30
2020/12/09 04:12:00;;;;;;;12.87;11.60;;;11.60;99.90;;;;;;5011452;28;20498;-30
2020/12/09 04:14:30;;;;;;;14.50;12.93;;;11.40;99.90;;;;;;5000165;28;20466;-30
2020/12/09 04:17:00;;;;;;;14.20;12.80;;;11.40;99.90;;;;;;4994667;28;20460;-30
2020/12/09 04:19:30;;;;;;;14.10;12.70;;;11.30;99.90;;;;;;4990736;28;20538;-30
2020/12/09 04:22:02;;;;;;;15.63;14.13;;;11.30;99.90;;;;;;5008445;28;20263;-30
2020/12/09 04:24:32;;;;;;;15.13;13.20;;;11.10;99.90;;;;;;4992119;28;20202;-30
2020/12/09 04:27:02;;;;;;;14.15;12.65;;;11.20;99.90;;;;;;4995567;28;21008;-30
2020/12/09 04:29:32;;;;;;;15.80;13.37;;;11.20;99.90;;;;;;5007624;28;20234;-30
2020/12/09 04:32:02;;;;;;;15.50;14.02;;;10.90;99.90;;;;;;5000180;28;20476;-29
2020/12/09 04:34:33;;;;;;;14.88;13.27;;;10.90;99.90;;;;;;4998546;28;20256;-29
2020/12/09 04:37:04;;;;;;;15.18;13.77;;;10.90;99.90;;;;;;5002195;28;20209;-30
2020/12/09 04:39:35;;;;;;;14.57;12.95;;;10.90;99.90;;;;;;4992291;28;20240;-29
2020/12/09 04:42:05;;;;;;;15.65;14.05;;;10.80;99.90;;;;;;4990416;28;20232;-30
2020/12/09 04:44:35;;;;;;;19.45;17.42;;;10.70;99.90;;;;;;4998666;28;20216;-29
2020/12/09 04:47:06;;;;;;;20.75;17.92;;;10.80;99.90;;;;;;4992927;28;20609;-29
2020/12/09 04:49:46;;;;;;;17.73;14.95;;;10.60;99.90;;;;;;4991096;28;20322;-29
2020/12/09 04:52:44;;;;;;;14.60;13.15;;;10.50;99.90;;;;;;4981275;28;20190;-29
2020/12/09 04:55:15;;;;;;;16.73;14.23;;;10.40;99.90;;;;;;5005899;28;20677;-29
2020/12/09 04:58:13;;;;;;;15.18;13.63;;;10.30;99.90;;;;;;4995647;28;20595;-29
2020/12/09 05:00:44;;;;;;;15.25;13.63;;;10.30;99.90;;;;;;4983883;28;20214;-29
2020/12/09 05:03:19;;;;;;;17.45;15.70;;;10.20;99.90;;;;;;4997388;28;20192;-29
2020/12/09 05:05:49;;;;;;;20.30;18.27;;;10.20;99.90;;;;;;4975762;28;20193;-29
2020/12/09 05:08:22;;;;;;;20.48;18.38;;;10.10;99.90;;;;;;4993204;28;20695;-30
2020/12/09 05:10:54;;;;;;;18.63;16.35;;;10.20;99.90;;;;;;5007035;28;20671;-29
2020/12/09 05:13:27;;;;;;;15.98;14.48;;;10.10;99.90;;;;;;5011169;28;20191;-29
2020/12/09 05:15:58;;;;;;;19.38;15.85;;;10.00;99.90;;;;;;4977686;28;20241;-29
2020/12/09 05:18:37;;;;;;;17.33;15.52;;;10.00;99.90;;;;;;5006647;28;20270;-29
2020/12/09 05:21:15;;;;;;;15.27;13.88;;;10.00;99.90;;;;;;4984908;28;20284;-29
2020/12/09 05:23:49;;;;;;;16.30;14.70;;;9.90;99.90;;;;;;4991350;28;20231;-29
2020/12/09 05:26:30;;;;;;;16.02;14.02;;;9.80;99.90;;;;;;5001354;28;20216;-29
2020/12/09 05:29:11;;;;;;;15.15;13.65;;;9.80;99.90;;;;;;5001766;28;20718;-29
2020/12/09 05:31:43;;;;;;;16.10;14.50;;;9.80;99.90;;;;;;5010397;28;20726;-29
2020/12/09 05:34:28;;;;;;;15.65;13.95;;;9.80;99.90;;;;;;5003773;28;20192;-30
2020/12/09 05:36:59;;;;;;;15.30;13.80;;;9.70;99.90;;;;;;4988085;28;20256;-29
2020/12/09 05:39:30;;;;;;;19.23;15.45;;;9.60;99.90;;;;;;4990499;28;20232;-29
2020/12/09 05:42:14;;;;;;;16.23;13.85;;;9.50;99.90;;;;;;4990455;28;20212;-30
2020/12/09 05:44:45;;;;;;;16.88;15.18;;;9.50;99.90;;;;;;5000990;28;20253;-29
2020/12/09 05:47:17;;;;;;;27.48;24.60;;;9.60;99.90;;;;;;4992387;28;20192;-29
2020/12/09 05:49:47;;;;;;;27.63;24.73;;;9.70;99.90;;;;;;4999763;28;20282;-30
2020/12/09 05:52:18;;;;;;;24.52;22.08;;;9.60;99.90;;;;;;4990646;28;20327;-29
2020/12/09 05:54:51;;;;;;;17.42;15.73;;;9.50;99.90;;;;;;4991280;28;20193;-28
2020/12/09 05:57:24;;;;;;;16.95;15.25;;;9.40;99.90;;;;;;4995665;28;20216;-28
2020/12/09 05:59:55;;;;;;;16.92;15.32;;;9.40;99.90;;;;;;4998178;28;20659;-29
2020/12/09 06:02:29;;;;;;;18.10;16.17;;;9.40;99.90;;;;;;4997164;28;20191;-28
2020/12/09 06:05:00;;;;;;;16.08;14.52;;;9.30;99.90;;;;;;5005584;28;20196;-28
2020/12/09 06:07:31;;;;;;;15.65;14.15;;;9.30;99.90;;;;;;4985565;28;20469;-29
2020/12/09 06:10:13;;;;;;;16.45;14.95;;;9.30;99.90;;;;;;4999363;28;20596;-29
2020/12/09 06:12:59;;;;;;;16.20;14.50;;;9.40;99.90;;;;;;5003932;28;20195;-29
2020/12/09 06:15:30;;;;;;;18.55;16.10;;;9.40;99.90;;;;;;4991507;28;20223;-29
2020/12/09 06:18:07;;;;;;;17.63;15.98;;;9.40;99.90;;;;;;4990653;28;20208;-29
2020/12/09 06:20:39;;;;;;;16.60;14.95;;;9.40;99.90;;;;;;5002706;28;20246;-30
2020/12/09 06:23:12;;;;;;;15.48;13.98;;;9.40;99.90;;;;;;5005461;28;20190;-29
2020/12/09 06:25:44;;;;;;;15.30;13.80;;;9.40;99.90;;;;;;5004437;28;20260;-29
2020/12/09 06:28:15;;;;;;;15.82;14.32;;;9.40;99.90;;;;;;5006136;28;20202;-29
2020/12/09 06:30:46;;;;;;;15.77;14.20;;;9.40;99.90;;;;;;4999639;28;20290;-29
2020/12/09 06:33:30;;;;;;;13.55;12.32;;;9.50;99.90;;;;;;4990365;28;20198;-29
2020/12/09 06:36:26;;;;;;;14.95;13.57;;;9.50;99.90;;;;;;4990600;28;20191;-29
2020/12/09 06:39:14;;;;;;;13.07;11.95;;;9.50;99.90;;;;;;4990263;28;20656;-30
2020/12/09 06:42:08;;;;;;;12.10;10.32;;;9.50;99.90;;;;;;4992781;28;20210;-29
2020/12/09 06:44:52;;;;;;;12.27;10.65;;;9.40;99.90;;;;;;4989834;28;20196;-30
2020/12/09 06:47:22;;;;;;;11.13;10.07;;;9.50;99.90;;;;;;4998851;28;20196;-29
2020/12/09 06:49:52;;;;;;;10.75;9.65;;;9.40;99.90;;;;;;5005727;28;20324;-29
2020/12/09 06:52:38;;;;;;;9.80;8.90;;;9.40;99.90;;;;;;4992288;28;20281;-29
2020/12/09 06:55:08;;;;;;;9.95;9.00;;;9.40;99.90;;;;;;4999751;28;20196;-30
2020/12/09 06:57:40;;;;;;;9.98;8.98;;;9.40;99.90;;;;;;4995542;28;20201;-30
2020/12/09 07:00:23;;;;;;;8.90;8.13;;;9.30;99.90;;;;;;5005743;28;20200;-29
2020/12/09 07:02:55;;;;;;;9.32;8.43;;;9.30;99.90;;;;;;4994743;28;20183;-29
2020/12/09 07:05:31;;;;;;;9.20;8.40;;;9.30;99.90;;;;;;5002748;28;20503;-29
2020/12/09 07:08:04;;;;;;;9.75;8.85;;;9.30;99.90;;;;;;5005783;28;20187;-29
2020/12/09 07:10:36;;;;;;;9.50;8.63;;;9.30;99.90;;;;;;5003938;28;20267;-29
2020/12/09 07:13:12;;;;;;;9.13;8.35;;;9.30;99.90;;;;;;5006679;28;20647;-29
2020/12/09 07:15:45;;;;;;;8.25;7.55;;;9.30;99.90;;;;;;5006213;28;20192;-29
2020/12/09 07:18:15;;;;;;;8.98;8.20;;;9.30;99.90;;;;;;4995209;28;20610;-29
2020/12/09 07:20:48;;;;;;;9.52;8.73;;;9.40;99.90;;;;;;5001566;28;20233;-29
2020/12/09 07:23:18;;;;;;;9.85;8.95;;;9.50;99.90;;;;;;4986795;28;20192;-28
2020/12/09 07:25:48;;;;;;;9.10;8.30;;;9.50;99.90;;;;;;4993905;28;20201;-29
2020/12/09 07:28:19;;;;;;;8.88;8.07;;;9.40;99.90;;;;;;5002075;28;20196;-29
2020/12/09 07:30:49;;;;;;;9.57;8.55;;;9.30;99.90;;;;;;4998865;28;20219;-29
2020/12/09 07:33:20;;;;;;;10.32;9.48;;;9.40;99.90;;;;;;4997620;28;20192;-29
2020/12/09 07:35:50;;;;;;;10.02;9.13;;;9.40;99.90;;;;;;4993606;28;20250;-29
2020/12/09 07:38:20;;;;;;;10.40;9.45;;;9.40;99.90;;;;;;4988668;28;20201;-29
2020/12/09 07:40:50;;;;;;;10.70;9.80;;;9.40;99.90;;;;;;4997298;28;20323;-29
2020/12/09 07:43:22;;;;;;;10.20;9.35;;;9.40;99.90;;;;;;5010390;28;20203;-28
2020/12/09 07:45:52;;;;;;;10.18;9.35;;;9.40;99.90;;;;;;5002427;28;20289;-29
2020/12/09 07:48:22;;;;;;;10.90;9.95;;;9.40;99.90;;;;;;4993842;28;20200;-30
2020/12/09 07:50:53;;;;;;;10.57;9.57;;;9.40;99.90;;;;;;4998511;28;20313;-29
2020/12/09 07:53:23;;;;;;;10.38;9.48;;;9.50;99.90;;;;;;4993281;28;20231;-29
2020/12/09 07:55:54;;;;;;;11.10;10.02;;;9.40;99.90;;;;;;4994962;28;20200;-29
2020/12/09 07:58:25;;;;;;;11.75;10.75;;;9.40;99.90;;;;;;4998505;28;20258;-29
2020/12/09 08:00:55;;;;;;;11.25;10.25;;;9.30;99.90;;;;;;5003121;28;20187;-28
2020/12/09 08:03:26;;;;;;;11.38;10.27;;;9.50;99.90;;;;;;4996263;28;20205;-28
2020/12/09 08:05:58;;;;;;;11.38;10.32;;;9.40;99.90;;;;;;4987521;28;20197;-30
2020/12/09 08:08:28;;;;;;;12.18;11.07;;;9.40;99.90;;;;;;4991135;28;20230;-29
2020/12/09 08:11:09;;;;;;;13.18;11.88;;;9.40;99.90;;;;;;4997561;28;20202;-29
2020/12/09 08:13:41;;;;;;;12.10;11.02;;;9.50;99.90;;;;;;4993048;28;20192;-29
2020/12/09 08:16:11;;;;;;;13.07;11.88;;;9.40;99.90;;;;;;4994417;28;20200;-30
2020/12/09 08:18:42;;;;;;;12.80;11.20;;;9.50;99.90;;;;;;4998117;28;20359;-29
2020/12/09 08:21:13;;;;;;;14.13;11.68;;;9.40;99.90;;;;;;5000497;28;20652;-29
2020/12/09 08:23:46;;;;;;;11.95;10.55;;;9.50;99.90;;;;;;4993134;28;20744;-29
2020/12/09 08:26:29;;;;;;;10.23;9.07;;;9.50;99.90;;;;;;4992644;28;20188;-30
2020/12/09 08:29:01;;;;;;;9.85;8.95;;;9.50;99.90;;;;;;4997326;28;20215;-29
2020/12/09 08:31:31;;;;;;;9.32;8.40;;;9.60;99.90;;;;;;4995112;28;20280;-29
2020/12/09 08:34:01;;;;;;;8.43;7.72;;;9.60;99.90;;;;;;4998787;28;20267;-28
2020/12/09 08:36:33;;;;;;;8.00;7.30;;;9.60;99.90;;;;;;5000776;28;20638;-28
2020/12/09 08:39:03;;;;;;;8.05;7.28;;;9.60;99.90;;;;;;5002184;28;20538;-29
2020/12/09 08:41:34;;;;;;;8.18;6.60;;;9.60;99.90;;;;;;5001995;28;20193;-28
2020/12/09 08:44:08;;;;;;;7.07;6.47;;;9.50;99.90;;;;;;4999653;28;20690;-28
2020/12/09 08:46:38;;;;;;;6.93;6.32;;;9.50;99.90;;;;;;5003490;28;20199;-28
2020/12/09 08:49:08;;;;;;;6.90;6.20;;;9.50;99.90;;;;;;4997739;28;20235;-29
2020/12/09 08:51:38;;;;;;;6.90;5.93;;;9.60;99.90;;;;;;5010881;28;20208;-28
2020/12/09 08:54:10;;;;;;;6.53;5.93;;;9.60;99.90;;;;;;5005083;28;20203;-28
2020/12/09 08:56:40;;;;;;;6.43;5.82;;;9.60;99.90;;;;;;4994957;28;20776;-29
2020/12/09 08:59:12;;;;;;;6.85;5.80;;;9.60;99.90;;;;;;5009372;28;20695;-28
2020/12/09 09:01:42;;;;;;;6.53;5.80;;;9.60;99.90;;;;;;4993415;28;20266;-28
2020/12/09 09:04:14;;;;;;;7.53;5.63;;;9.50;99.90;;;;;;5002597;28;20279;-28
2020/12/09 09:06:44;;;;;;;5.97;4.90;;;9.50;99.90;;;;;;4992280;28;20608;-28
2020/12/09 09:09:14;;;;;;;5.10;4.70;;;9.40;99.90;;;;;;5005975;28;20281;-29
2020/12/09 09:11:44;;;;;;;5.07;4.68;;;9.40;99.90;;;;;;5003775;28;20200;-29
2020/12/09 09:14:31;;;;;;;4.53;4.13;;;9.30;99.90;;;;;;4994766;28;20723;-29
2020/12/09 09:17:02;;;;;;;4.68;4.38;;;9.20;99.90;;;;;;5003484;28;20262;-29
2020/12/09 09:19:32;;;;;;;4.53;4.18;;;9.20;99.90;;;;;;5003479;28;20299;-29
2020/12/09 09:22:02;;;;;;;6.25;4.60;;;9.10;99.90;;;;;;4999398;28;20276;-28
2020/12/09 09:24:32;;;;;;;5.47;4.45;;;9.00;99.90;;;;;;4991928;28;20266;-29
2020/12/09 09:27:02;;;;;;;4.30;3.88;;;9.00;99.90;;;;;;4990844;28;20254;-29
2020/12/09 09:29:35;;;;;;;5.07;4.05;;;8.90;99.90;;;;;;4995766;28;20286;-36
2020/12/09 09:32:05;;;;;;;3.88;3.58;;;8.80;99.90;;;;;;5003514;28;20216;-28
2020/12/09 09:34:35;;;;;;;3.83;3.45;;;8.70;99.90;;;;;;4991745;28;20211;-29
2020/12/09 09:37:08;;;;;;;3.83;3.38;;;8.60;99.90;;;;;;4988464;28;20207;-29
2020/12/09 09:39:38;;;;;;;4.75;4.20;;;8.50;99.90;;;;;;5003841;28;20227;-28
2020/12/09 09:42:09;;;;;;;4.13;3.72;;;8.50;99.90;;;;;;4991513;28;20184;-29
2020/12/09 09:44:40;;;;;;;4.45;4.05;;;8.40;99.90;;;;;;5003740;28;20634;-28
2020/12/09 09:47:11;;;;;;;4.70;4.40;;;8.30;99.90;;;;;;4998424;28;20370;-28
2020/12/09 09:49:41;;;;;;;4.25;3.88;;;8.30;99.90;;;;;;5009533;28;20714;-28
2020/12/09 09:52:11;;;;;;;4.10;3.70;;;8.20;99.90;;;;;;5005198;28;20672;-29
2020/12/09 09:54:41;;;;;;;4.38;3.97;;;8.20;99.90;;;;;;4991326;28;20233;-28
2020/12/09 09:57:11;;;;;;;4.35;3.72;;;8.20;99.90;;;;;;4996831;28;20587;-28
2020/12/09 09:59:43;;;;;;;5.10;3.90;;;8.20;99.90;;;;;;5005028;28;20200;-28
2020/12/09 10:02:13;;;;;;;5.03;4.55;;;8.10;99.90;;;;;;4999748;28;20578;-29
2020/12/09 10:04:43;;;;;;;5.65;4.53;;;8.10;99.90;;;;;;4991814;28;20207;-29
2020/12/09 10:07:13;;;;;;;5.57;5.07;;;8.20;99.90;;;;;;4996665;28;20278;-29
2020/12/09 10:09:43;;;;;;;5.20;4.20;;;8.20;99.90;;;;;;5000576;28;20219;-29
2020/12/09 10:12:13;;;;;;;5.68;5.15;;;8.10;99.90;;;;;;4990209;28;20200;-29
2020/12/09 10:14:44;;;;;;;5.22;4.68;;;8.20;99.90;;;;;;4990015;28;20220;-29
2020/12/09 10:17:15;;;;;;;8.02;6.88;;;8.00;99.90;;;;;;5002413;28;20663;-28
2020/12/09 10:19:45;;;;;;;6.95;6.25;;;8.00;99.90;;;;;;4993389;28;20200;-29
2020/12/09 10:22:15;;;;;;;8.88;7.07;;;7.90;99.90;;;;;;4982902;28;20196;-29
2020/12/09 10:24:45;;;;;;;9.23;8.10;;;7.90;99.90;;;;;;4997505;28;20684;-29
2020/12/09 10:27:15;;;;;;;7.10;6.28;;;7.80;99.90;;;;;;5000487;28;20646;-28
2020/12/09 10:29:46;;;;;;;5.95;5.40;;;7.80;99.90;;;;;;5008238;28;20281;-28
2020/12/09 10:32:17;;;;;;;7.18;4.95;;;7.70;99.90;;;;;;5008835;28;20246;-29
2020/12/09 10:34:49;;;;;;;4.78;4.38;;;7.70;99.90;;;;;;4985906;28;20231;-29
2020/12/09 10:37:19;;;;;;;5.15;4.65;;;7.60;99.90;;;;;;4990459;28;20214;-28
2020/12/09 10:39:52;;;;;;;5.05;4.68;;;7.50;99.90;;;;;;4991062;28;20287;-29
2020/12/09 10:42:22;;;;;;;4.80;4.40;;;7.50;99.90;;;;;;4989410;28;20219;-28
2020/12/09 10:44:53;;;;;;;5.80;5.30;;;7.40;99.90;;;;;;4989879;28;20600;-29
2020/12/09 10:47:23;;;;;;;4.75;4.35;;;7.40;99.90;;;;;;4993837;28;20245;-28
2020/12/09 10:49:53;;;;;;;5.32;4.82;;;7.30;99.90;;;;;;4996885;28;20265;-28
2020/12/09 10:52:24;;;;;;;5.30;4.80;;;7.30;99.90;;;;;;4989859;28;20250;-28
2020/12/09 10:54:54;;;;;;;5.07;4.65;;;7.20;99.90;;;;;;4989721;28;20203;-28
2020/12/09 10:57:24;;;;;;;4.95;4.50;;;7.20;99.90;;;;;;4996253;28;20299;-30
2020/12/09 10:59:55;;;;;;;5.32;4.82;;;7.20;99.90;;;;;;4989856;28;20235;-29
2020/12/09 11:02:25;;;;;;;5.53;5.03;;;7.10;99.90;;;;;;4999383;28;20218;-29
2020/12/09 11:04:55;;;;;;;7.32;5.30;;;7.20;99.90;;;;;;4989773;28;20204;-29
2020/12/09 11:07:25;;;;;;;5.78;5.28;;;7.20;99.90;;;;;;4990615;28;20347;-29
2020/12/09 11:09:55;;;;;;;5.30;4.90;;;7.20;99.90;;;;;;4994377;28;20313;-29
2020/12/09 11:12:25;;;;;;;8.15;5.85;;;7.10;99.90;;;;;;5003427;28;20196;-30
2020/12/09 11:14:57;;;;;;;6.00;5.47;;;7.20;99.90;;;;;;4989479;28;20247;-30
2020/12/09 11:17:27;;;;;;;7.40;5.40;;;7.20;99.90;;;;;;5006508;28;20195;-29
2020/12/09 11:19:57;;;;;;;5.53;5.00;;;7.20;99.90;;;;;;4996777;28;20204;-29
2020/12/09 11:22:27;;;;;;;6.47;5.80;;;7.10;99.90;;;;;;4994902;28;20257;-29
2020/12/09 11:24:57;;;;;;;5.63;5.13;;;7.10;99.90;;;;;;5005592;28;20202;-30
2020/12/09 11:27:27;;;;;;;6.43;5.82;;;7.00;99.90;;;;;;5002543;28;20203;-29
2020/12/09 11:29:58;;;;;;;6.65;6.15;;;7.00;99.90;;;;;;5006612;28;20222;-29
2020/12/09 11:32:33;;;;;;;6.93;6.20;;;7.10;99.90;;;;;;4994481;28;20195;-29
2020/12/09 11:35:04;;;;;;;6.72;6.15;;;7.10;99.90;;;;;;4996857;28;20274;-29
2020/12/09 11:37:35;;;;;;;6.07;5.63;;;7.10;99.90;;;;;;4997182;28;20195;-29
2020/12/09 11:40:05;;;;;;;6.82;6.13;;;7.20;99.90;;;;;;4994198;28;20389;-29
2020/12/09 11:42:38;;;;;;;7.82;6.38;;;7.20;99.90;;;;;;5008383;28;20198;-29
2020/12/09 11:45:10;;;;;;;6.55;5.85;;;7.30;99.90;;;;;;5006334;28;20341;-29
2020/12/09 11:47:40;;;;;;;7.25;5.90;;;7.30;99.90;;;;;;4991162;28;20580;-29
2020/12/09 11:50:10;;;;;;;7.97;7.22;;;7.30;99.90;;;;;;5006365;28;20550;-29
2020/12/09 11:52:40;;;;;;;6.95;6.25;;;7.30;99.90;;;;;;4994274;28;20557;-29
2020/12/09 11:55:12;;;;;;;7.20;6.60;;;7.20;99.90;;;;;;4996237;28;20357;-29
2020/12/09 11:57:42;;;;;;;6.55;5.95;;;7.20;99.90;;;;;;4989744;28;20733;-29
2020/12/09 12:00:13;;;;;;;6.32;5.72;;;7.20;99.90;;;;;;4993645;28;20227;-29
2020/12/09 12:02:43;;;;;;;6.65;6.05;;;7.00;99.90;;;;;;5005384;28;20189;-29
2020/12/09 12:05:13;;;;;;;7.20;6.35;;;7.00;99.90;;;;;;5003703;28;20246;-29
2020/12/09 12:07:43;;;;;;;7.43;5.65;;;7.00;99.90;;;;;;4997839;28;20543;-29
2020/12/09 12:10:13;;;;;;;6.97;6.15;;;6.90;99.90;;;;;;5002695;28;20290;-29
2020/12/09 12:12:43;;;;;;;6.75;6.10;;;6.90;99.90;;;;;;4990927;28;20207;-29
2020/12/09 12:15:14;;;;;;;6.47;5.88;;;6.90;99.90;;;;;;5006100;28;20199;-29
2020/12/09 12:17:44;;;;;;;6.78;6.18;;;6.80;99.90;;;;;;5011847;28;20273;-29
2020/12/09 12:20:14;;;;;;;6.57;5.97;;;6.70;99.90;;;;;;4998657;28;20195;-29
2020/12/09 12:22:44;;;;;;;9.15;6.85;;;6.60;99.90;;;;;;4991856;28;20273;-29
2020/12/09 12:25:14;;;;;;;6.72;6.05;;;6.60;99.90;;;;;;5006034;28;20611;-29
2020/12/09 12:27:44;;;;;;;6.78;6.18;;;6.50;99.90;;;;;;5011212;28;20237;-29
2020/12/09 12:30:15;;;;;;;6.97;6.28;;;6.50;99.90;;;;;;4991422;28;20232;-30
2020/12/09 12:32:45;;;;;;;6.22;5.53;;;6.30;99.90;;;;;;4992745;28;20338;-29
2020/12/09 12:35:16;;;;;;;6.38;5.78;;;6.40;99.90;;;;;;4992172;28;20232;-29
2020/12/09 12:37:46;;;;;;;7.43;6.82;;;6.30;99.90;;;;;;5003339;28;20591;-29
2020/12/09 12:40:16;;;;;;;6.50;5.80;;;6.20;99.90;;;;;;4996160;28;20224;-30
2020/12/09 12:42:46;;;;;;;7.35;6.65;;;6.10;99.90;;;;;;4992159;28;20204;-29
2020/12/09 12:45:17;;;;;;;7.15;6.45;;;6.10;99.90;;;;;;4996292;28;20199;-29
2020/12/09 12:47:50;;;;;;;9.38;7.47;;;6.10;99.90;;;;;;5005376;28;20726;-29
2020/12/09 12:50:20;;;;;;;6.60;5.90;;;6.00;99.90;;;;;;4991645;28;20366;-29
2020/12/09 12:52:50;;;;;;;7.10;6.40;;;6.00;99.90;;;;;;4996470;28;20200;-29
2020/12/09 12:55:20;;;;;;;7.43;6.68;;;6.00;99.90;;;;;;4992272;28;20528;-29
2020/12/09 12:57:50;;;;;;;6.85;6.30;;;5.90;99.90;;;;;;4996894;28;20199;-29
2020/12/09 13:00:21;;;;;;;8.00;7.20;;;5.90;99.90;;;;;;4993529;28;20204;-29
2020/12/09 13:02:51;;;;;;;7.20;6.50;;;5.90;99.90;;;;;;4992290;28;20253;-29
2020/12/09 13:05:21;;;;;;;8.75;6.82;;;5.80;99.90;;;;;;5007556;28;20725;-29